sensor_id;sensor_type;location;lat;lon;timestamp;temperature;humidity
17843;DHT22;69286;48.222;16.332;2024-01-15T00:00:39;0.80;99.90
17843;DHT22;69286;48.222;16.332;2024-01-15T00:03:08;0.80;99.90
17843;DHT22;69286;48.222;16.332;2024-01-15T00:05:35;0.80;99.90
17843;DHT22;69286;48.222;16.332;2024-01-15T00:08:02;0.80;99.90
17843;DHT22;69286;48.222;16.332;2024-01-15T00:10:30;0.80;99.90
17843;DHT22;69286;48.222;16.332;2024-01-15T00:12:57;0.80;99.90
17843;DHT22;69286;48.222;16.332;2024-01-15T00:15:24;0.80;99.90
17843;DHT22;69286;48.222;16.332;2024-01-15T00:17:55;0.80;99.90
17843;DHT22;69286;48.222;16.332;2024-01-15T00:20:22;0.80;99.90
17843;DHT22;69286;48.222;16.332;2024-01-15T00:22:50;0.80;99.90
17843;DHT22;69286;48.222;16.332;2024-01-15T00:25:17;0.80;99.90
17843;DHT22;69286;48.222;16.332;2024-01-15T00:27:44;0.80;99.90
17843;DHT22;69286;48.222;16.332;2024-01-15T00:30:12;0.70;99.90
17843;DHT22;69286;48.222;16.332;2024-01-15T00:32:39;0.80;99.90
17843;DHT22;69286;48.222;16.332;2024-01-15T00:35:08;0.80;99.90
17843;DHT22;69286;48.222;16.332;2024-01-15T00:37:35;0.80;99.90
17843;DHT22;69286;48.222;16.332;2024-01-15T00:40:03;0.90;99.90
17843;DHT22;69286;48.222;16.332;2024-01-15T00:42:30;0.90;99.90
17843;DHT22;69286;48.222;16.332;2024-01-15T00:44:57;0.90;99.90
17843;DHT22;69286;48.222;16.332;2024-01-15T00:47:24;0.90;99.90
17843;DHT22;69286;48.222;16.332;2024-01-15T00:49:51;1.00;99.90
17843;DHT22;69286;48.222;16.332;2024-01-15T00:52:20;1.00;99.90
17843;DHT22;69286;48.222;16.332;2024-01-15T00:54:47;1.00;99.90
17843;DHT22;69286;48.222;16.332;2024-01-15T00:57:14;1.10;99.90
17843;DHT22;69286;48.222;16.332;2024-01-15T00:59:41;1.10;99.90
17843;DHT22;69286;48.222;16.332;2024-01-15T01:02:08;1.20;99.90
17843;DHT22;69286;48.222;16.332;2024-01-15T01:04:35;1.10;99.90
17843;DHT22;69286;48.222;16.332;2024-01-15T01:07:02;1.20;99.90
17843;DHT22;69286;48.222;16.332;2024-01-15T01:09:31;1.20;99.90
17843;DHT22;69286;48.222;16.332;2024-01-15T01:11:58;1.30;99.90
17843;DHT22;69286;48.222;16.332;2024-01-15T01:14:25;1.20;99.90
17843;DHT22;69286;48.222;16.332;2024-01-15T01:16:52;1.20;99.90
17843;DHT22;69286;48.222;16.332;2024-01-15T01:19:19;1.20;99.90
17843;DHT22;69286;48.222;16.332;2024-01-15T01:21:46;1.20;99.90
17843;DHT22;69286;48.222;16.332;2024-01-15T01:24:13;1.20;99.90
17843;DHT22;69286;48.222;16.332;2024-01-15T01:26:41;1.20;99.90
17843;DHT22;69286;48.222;16.332;2024-01-15T01:29:08;1.20;99.90
17843;DHT22;69286;48.222;16.332;2024-01-15T01:31:36;1.20;99.90
17843;DHT22;69286;48.222;16.332;2024-01-15T01:34:03;1.30;99.90
17843;DHT22;69286;48.222;16.332;2024-01-15T01:36:31;1.30;99.90
17843;DHT22;69286;48.222;16.332;2024-01-15T01:38:59;1.40;99.90
17843;DHT22;69286;48.222;16.332;2024-01-15T01:41:26;1.40;99.90
17843;DHT22;69286;48.222;16.332;2024-01-15T01:43:54;1.50;99.90
17843;DHT22;69286;48.222;16.332;2024-01-15T01:46:21;1.50;99.90
17843;DHT22;69286;48.222;16.332;2024-01-15T01:48:48;1.60;99.90
17843;DHT22;69286;48.222;16.332;2024-01-15T01:51:16;1.60;99.90
17843;DHT22;69286;48.222;16.332;2024-01-15T01:53:43;1.70;99.90
17843;DHT22;69286;48.222;16.332;2024-01-15T01:56:12;1.70;99.60
17843;DHT22;69286;48.222;16.332;2024-01-15T01:58:39;1.70;99.60
17843;DHT22;69286;48.222;16.332;2024-01-15T02:01:08;1.80;99.40
17843;DHT22;69286;48.222;16.332;2024-01-15T02:03:35;1.80;99.00
17843;DHT22;69286;48.222;16.332;2024-01-15T02:06:03;1.90;99.10
17843;DHT22;69286;48.222;16.332;2024-01-15T02:08:30;1.80;99.00
17843;DHT22;69286;48.222;16.332;2024-01-15T02:10:57;1.80;99.10
17843;DHT22;69286;48.222;16.332;2024-01-15T02:13:24;1.80;99.20
17843;DHT22;69286;48.222;16.332;2024-01-15T02:15:51;1.90;98.90
17843;DHT22;69286;48.222;16.332;2024-01-15T02:18:20;1.80;99.10
17843;DHT22;69286;48.222;16.332;2024-01-15T02:20:47;1.90;98.90
17843;DHT22;69286;48.222;16.332;2024-01-15T02:23:16;1.90;99.00
17843;DHT22;69286;48.222;16.332;2024-01-15T02:25:44;1.90;99.10
17843;DHT22;69286;48.222;16.332;2024-01-15T02:28:12;1.90;99.20
17843;DHT22;69286;48.222;16.332;2024-01-15T02:30:41;1.80;99.10
17843;DHT22;69286;48.222;16.332;2024-01-15T02:33:09;1.80;99.30
17843;DHT22;69286;48.222;16.332;2024-01-15T02:35:36;1.80;99.60
17843;DHT22;69286;48.222;16.332;2024-01-15T02:38:03;1.80;99.40
17843;DHT22;69286;48.222;16.332;2024-01-15T02:40:32;1.90;99.30
17843;DHT22;69286;48.222;16.332;2024-01-15T02:42:59;1.80;99.30
17843;DHT22;69286;48.222;16.332;2024-01-15T02:45:27;1.80;99.20
17843;DHT22;69286;48.222;16.332;2024-01-15T02:47:54;1.90;99.40
17843;DHT22;69286;48.222;16.332;2024-01-15T02:50:21;1.80;99.40
17843;DHT22;69286;48.222;16.332;2024-01-15T02:52:48;1.80;99.60
17843;DHT22;69286;48.222;16.332;2024-01-15T02:55:15;2.60;99.90
17843;DHT22;69286;48.222;16.332;2024-01-15T02:57:44;1.80;99.90
17843;DHT22;69286;48.222;16.332;2024-01-15T03:00:11;1.70;99.80
17843;DHT22;69286;48.222;16.332;2024-01-15T03:02:40;1.70;99.90
17843;DHT22;69286;48.222;16.332;2024-01-15T03:05:09;1.70;99.90
17843;DHT22;69286;48.222;16.332;2024-01-15T03:07:36;1.70;99.90
17843;DHT22;69286;48.222;16.332;2024-01-15T03:10:05;1.70;99.90
17843;DHT22;69286;48.222;16.332;2024-01-15T03:12:32;1.70;99.90
17843;DHT22;69286;48.222;16.332;2024-01-15T03:15:01;1.60;99.90
17843;DHT22;69286;48.222;16.332;2024-01-15T03:17:28;1.60;99.90
17843;DHT22;69286;48.222;16.332;2024-01-15T03:19:55;1.60;99.90
17843;DHT22;69286;48.222;16.332;2024-01-15T03:22:22;1.50;99.90
17843;DHT22;69286;48.222;16.332;2024-01-15T03:24:49;1.60;99.90
17843;DHT22;69286;48.222;16.332;2024-01-15T03:27:16;1.60;99.90
17843;DHT22;69286;48.222;16.332;2024-01-15T03:29:43;1.60;99.90
17843;DHT22;69286;48.222;16.332;2024-01-15T03:32:12;1.60;99.90
17843;DHT22;69286;48.222;16.332;2024-01-15T03:34:39;1.60;99.90
17843;DHT22;69286;48.222;16.332;2024-01-15T03:37:06;1.60;99.90
17843;DHT22;69286;48.222;16.332;2024-01-15T03:39:33;1.60;99.90
17843;DHT22;69286;48.222;16.332;2024-01-15T03:42:00;1.60;99.90
17843;DHT22;69286;48.222;16.332;2024-01-15T03:44:27;1.60;99.90
17843;DHT22;69286;48.222;16.332;2024-01-15T03:46:54;2.10;99.90
17843;DHT22;69286;48.222;16.332;2024-01-15T03:49:23;1.60;99.90
17843;DHT22;69286;48.222;16.332;2024-01-15T03:51:50;1.50;99.90
17843;DHT22;69286;48.222;16.332;2024-01-15T03:54:17;1.50;99.90
17843;DHT22;69286;48.222;16.332;2024-01-15T03:56:44;1.50;99.90
17843;DHT22;69286;48.222;16.332;2024-01-15T03:59:11;1.40;99.90
17843;DHT22;69286;48.222;16.332;2024-01-15T04:01:38;1.40;99.90
17843;DHT22;69286;48.222;16.332;2024-01-15T04:04:05;1.40;99.90
17843;DHT22;69286;48.222;16.332;2024-01-15T04:06:33;1.40;99.90
17843;DHT22;69286;48.222;16.332;2024-01-15T04:09:00;1.40;99.90
17843;DHT22;69286;48.222;16.332;2024-01-15T04:11:27;1.40;99.90
17843;DHT22;69286;48.222;16.332;2024-01-15T04:13:54;1.30;99.90
17843;DHT22;69286;48.222;16.332;2024-01-15T04:16:21;1.30;99.90
17843;DHT22;69286;48.222;16.332;2024-01-15T04:18:48;1.40;99.90
17843;DHT22;69286;48.222;16.332;2024-01-15T04:21:17;1.40;99.90
17843;DHT22;69286;48.222;16.332;2024-01-15T04:23:45;1.50;99.90
17843;DHT22;69286;48.222;16.332;2024-01-15T04:26:12;1.40;99.90
17843;DHT22;69286;48.222;16.332;2024-01-15T04:28:39;1.40;99.90
17843;DHT22;69286;48.222;16.332;2024-01-15T04:31:06;1.40;99.90
17843;DHT22;69286;48.222;16.332;2024-01-15T04:33:33;1.40;99.90
17843;DHT22;69286;48.222;16.332;2024-01-15T04:36:02;1.40;99.90
17843;DHT22;69286;48.222;16.332;2024-01-15T04:38:29;1.40;99.90
17843;DHT22;69286;48.222;16.332;2024-01-15T04:40:57;1.40;99.90
17843;DHT22;69286;48.222;16.332;2024-01-15T04:43:24;1.30;99.90
17843;DHT22;69286;48.222;16.332;2024-01-15T04:45:51;1.30;99.90
17843;DHT22;69286;48.222;16.332;2024-01-15T04:48:18;1.20;99.90
17843;DHT22;69286;48.222;16.332;2024-01-15T04:50:45;1.20;99.90
17843;DHT22;69286;48.222;16.332;2024-01-15T04:53:13;1.10;99.90
17843;DHT22;69286;48.222;16.332;2024-01-15T04:55:40;1.10;99.90
17843;DHT22;69286;48.222;16.332;2024-01-15T04:58:09;1.00;99.90
17843;DHT22;69286;48.222;16.332;2024-01-15T05:00:36;1.00;99.90
17843;DHT22;69286;48.222;16.332;2024-01-15T05:03:03;1.00;99.90
17843;DHT22;69286;48.222;16.332;2024-01-15T05:05:30;0.90;99.90
17843;DHT22;69286;48.222;16.332;2024-01-15T05:07:57;0.90;99.90
17843;DHT22;69286;48.222;16.332;2024-01-15T05:10:24;0.90;99.90
17843;DHT22;69286;48.222;16.332;2024-01-15T05:12:51;0.80;99.90
17843;DHT22;69286;48.222;16.332;2024-01-15T05:15:20;0.90;99.90
17843;DHT22;69286;48.222;16.332;2024-01-15T05:17:47;0.90;99.90
17843;DHT22;69286;48.222;16.332;2024-01-15T05:20:14;0.80;99.90
17843;DHT22;69286;48.222;16.332;2024-01-15T05:22:41;0.80;99.90
17843;DHT22;69286;48.222;16.332;2024-01-15T05:25:08;0.80;99.90
17843;DHT22;69286;48.222;16.332;2024-01-15T05:27:35;0.80;99.90
17843;DHT22;69286;48.222;16.332;2024-01-15T05:30:02;0.70;99.90
17843;DHT22;69286;48.222;16.332;2024-01-15T05:32:32;0.70;99.90
17843;DHT22;69286;48.222;16.332;2024-01-15T05:34:59;0.70;99.90
17843;DHT22;69286;48.222;16.332;2024-01-15T05:37:26;0.70;99.90
17843;DHT22;69286;48.222;16.332;2024-01-15T05:39:53;0.80;99.90
17843;DHT22;69286;48.222;16.332;2024-01-15T05:42:20;0.80;99.90
17843;DHT22;69286;48.222;16.332;2024-01-15T05:44:47;0.90;99.90
17843;DHT22;69286;48.222;16.332;2024-01-15T05:47:14;0.80;99.90
17843;DHT22;69286;48.222;16.332;2024-01-15T05:49:42;0.80;99.90
17843;DHT22;69286;48.222;16.332;2024-01-15T05:52:09;0.80;99.90
17843;DHT22;69286;48.222;16.332;2024-01-15T05:54:36;0.80;99.90
17843;DHT22;69286;48.222;16.332;2024-01-15T05:57:04;0.80;99.90
17843;DHT22;69286;48.222;16.332;2024-01-15T05:59:31;0.80;99.90
17843;DHT22;69286;48.222;16.332;2024-01-15T06:01:59;0.80;99.90
17843;DHT22;69286;48.222;16.332;2024-01-15T06:04:26;0.70;99.90
17843;DHT22;69286;48.222;16.332;2024-01-15T06:06:55;0.70;99.90
17843;DHT22;69286;48.222;16.332;2024-01-15T06:09:22;0.70;99.90
17843;DHT22;69286;48.222;16.332;2024-01-15T06:11:49;0.80;99.90
17843;DHT22;69286;48.222;16.332;2024-01-15T06:14:16;0.80;99.90
17843;DHT22;69286;48.222;16.332;2024-01-15T06:16:43;0.90;99.90
17843;DHT22;69286;48.222;16.332;2024-01-15T06:19:10;0.90;99.90
17843;DHT22;69286;48.222;16.332;2024-01-15T06:21:37;0.90;99.90
17843;DHT22;69286;48.222;16.332;2024-01-15T06:24:06;0.90;99.90
17843;DHT22;69286;48.222;16.332;2024-01-15T06:26:35;0.90;99.90
17843;DHT22;69286;48.222;16.332;2024-01-15T06:29:02;1.00;99.90
17843;DHT22;69286;48.222;16.332;2024-01-15T06:31:29;1.00;99.90
17843;DHT22;69286;48.222;16.332;2024-01-15T06:33:56;0.90;99.90
17843;DHT22;69286;48.222;16.332;2024-01-15T06:36:23;1.00;99.90
17843;DHT22;69286;48.222;16.332;2024-01-15T06:38:51;1.00;99.90
17843;DHT22;69286;48.222;16.332;2024-01-15T06:41:19;1.00;99.90
17843;DHT22;69286;48.222;16.332;2024-01-15T06:43:46;0.90;99.90
17843;DHT22;69286;48.222;16.332;2024-01-15T06:46:14;0.90;99.90
17843;DHT22;69286;48.222;16.332;2024-01-15T06:48:46;0.80;99.90
17843;DHT22;69286;48.222;16.332;2024-01-15T06:51:13;0.80;99.90
17843;DHT22;69286;48.222;16.332;2024-01-15T06:53:40;0.80;99.90
17843;DHT22;69286;48.222;16.332;2024-01-15T06:56:07;0.80;99.90
17843;DHT22;69286;48.222;16.332;2024-01-15T06:58:35;0.80;99.90
17843;DHT22;69286;48.222;16.332;2024-01-15T07:01:02;0.80;99.90
17843;DHT22;69286;48.222;16.332;2024-01-15T07:03:30;0.80;99.90
17843;DHT22;69286;48.222;16.332;2024-01-15T07:05:57;0.80;99.90
17843;DHT22;69286;48.222;16.332;2024-01-15T07:08:25;0.90;99.90
17843;DHT22;69286;48.222;16.332;2024-01-15T07:10:52;1.00;99.90
17843;DHT22;69286;48.222;16.332;2024-01-15T07:13:19;1.20;99.90
17843;DHT22;69286;48.222;16.332;2024-01-15T07:15:48;1.40;99.90
17843;DHT22;69286;48.222;16.332;2024-01-15T07:18:14;1.50;99.90
17843;DHT22;69286;48.222;16.332;2024-01-15T07:20:42;1.70;99.90
17843;DHT22;69286;48.222;16.332;2024-01-15T07:23:09;1.90;99.90
17843;DHT22;69286;48.222;16.332;2024-01-15T07:25:36;2.10;99.90
17843;DHT22;69286;48.222;16.332;2024-01-15T07:28:04;2.80;99.90
17843;DHT22;69286;48.222;16.332;2024-01-15T07:30:31;2.40;99.90
17843;DHT22;69286;48.222;16.332;2024-01-15T07:32:59;2.50;99.90
17843;DHT22;69286;48.222;16.332;2024-01-15T07:35:26;2.50;99.90
17843;DHT22;69286;48.222;16.332;2024-01-15T07:37:53;2.40;99.90
17843;DHT22;69286;48.222;16.332;2024-01-15T07:40:21;2.40;99.90
17843;DHT22;69286;48.222;16.332;2024-01-15T07:42:47;2.30;99.90
17843;DHT22;69286;48.222;16.332;2024-01-15T07:45:15;2.20;99.90
17843;DHT22;69286;48.222;16.332;2024-01-15T07:47:42;2.10;99.90
17843;DHT22;69286;48.222;16.332;2024-01-15T07:50:11;2.00;99.90
17843;DHT22;69286;48.222;16.332;2024-01-15T07:52:39;1.90;99.90
17843;DHT22;69286;48.222;16.332;2024-01-15T07:55:08;1.90;99.90
17843;DHT22;69286;48.222;16.332;2024-01-15T07:57:36;1.80;99.90
17843;DHT22;69286;48.222;16.332;2024-01-15T08:00:04;1.80;99.90
17843;DHT22;69286;48.222;16.332;2024-01-15T08:02:32;1.90;99.90
17843;DHT22;69286;48.222;16.332;2024-01-15T08:04:59;1.90;99.90
17843;DHT22;69286;48.222;16.332;2024-01-15T08:07:28;2.00;99.90
17843;DHT22;69286;48.222;16.332;2024-01-15T08:09:55;2.00;99.90
17843;DHT22;69286;48.222;16.332;2024-01-15T08:12:22;2.00;99.90
17843;DHT22;69286;48.222;16.332;2024-01-15T08:14:49;2.10;99.90
17843;DHT22;69286;48.222;16.332;2024-01-15T08:17:16;2.10;99.90
17843;DHT22;69286;48.222;16.332;2024-01-15T08:19:44;2.10;99.90
17843;DHT22;69286;48.222;16.332;2024-01-15T08:22:12;2.10;99.90
17843;DHT22;69286;48.222;16.332;2024-01-15T08:24:40;2.00;99.90
17843;DHT22;69286;48.222;16.332;2024-01-15T08:27:07;2.00;99.90
17843;DHT22;69286;48.222;16.332;2024-01-15T08:29:34;2.00;99.90
17843;DHT22;69286;48.222;16.332;2024-01-15T08:32:01;2.00;99.90
17843;DHT22;69286;48.222;16.332;2024-01-15T08:34:28;2.00;99.90
17843;DHT22;69286;48.222;16.332;2024-01-15T08:36:55;2.10;99.90
17843;DHT22;69286;48.222;16.332;2024-01-15T08:39:22;2.20;99.90
17843;DHT22;69286;48.222;16.332;2024-01-15T08:41:50;2.30;99.90
17843;DHT22;69286;48.222;16.332;2024-01-15T08:44:17;2.50;99.90
17843;DHT22;69286;48.222;16.332;2024-01-15T08:46:44;2.70;99.90
17843;DHT22;69286;48.222;16.332;2024-01-15T08:49:11;3.00;99.90
17843;DHT22;69286;48.222;16.332;2024-01-15T08:51:38;3.30;99.90
17843;DHT22;69286;48.222;16.332;2024-01-15T08:54:06;3.60;99.50
17843;DHT22;69286;48.222;16.332;2024-01-15T08:56:34;3.80;99.00
17843;DHT22;69286;48.222;16.332;2024-01-15T08:59:02;4.00;98.90
17843;DHT22;69286;48.222;16.332;2024-01-15T09:01:29;4.30;98.40
17843;DHT22;69286;48.222;16.332;2024-01-15T09:03:56;4.40;97.90
17843;DHT22;69286;48.222;16.332;2024-01-15T09:06:23;4.60;97.60
17843;DHT22;69286;48.222;16.332;2024-01-15T09:08:50;4.80;97.50
17843;DHT22;69286;48.222;16.332;2024-01-15T09:11:17;4.80;96.70
17843;DHT22;69286;48.222;16.332;2024-01-15T09:13:44;4.60;96.60
17843;DHT22;69286;48.222;16.332;2024-01-15T09:16:13;4.40;97.10
17843;DHT22;69286;48.222;16.332;2024-01-15T09:18:40;4.10;97.60
17843;DHT22;69286;48.222;16.332;2024-01-15T09:21:07;4.00;97.80
17843;DHT22;69286;48.222;16.332;2024-01-15T09:23:34;3.90;97.90
17843;DHT22;69286;48.222;16.332;2024-01-15T09:26:01;3.70;98.30
17843;DHT22;69286;48.222;16.332;2024-01-15T09:28:28;3.50;98.50
17843;DHT22;69286;48.222;16.332;2024-01-15T09:30:55;3.30;99.10
17843;DHT22;69286;48.222;16.332;2024-01-15T09:33:23;3.20;99.30
17843;DHT22;69286;48.222;16.332;2024-01-15T09:35:50;3.10;99.60
17843;DHT22;69286;48.222;16.332;2024-01-15T09:38:17;3.00;99.70
17843;DHT22;69286;48.222;16.332;2024-01-15T09:40:45;3.00;99.90
17843;DHT22;69286;48.222;16.332;2024-01-15T09:43:14;4.50;99.90
17843;DHT22;69286;48.222;16.332;2024-01-15T09:45:41;3.10;99.90
17843;DHT22;69286;48.222;16.332;2024-01-15T09:48:09;3.20;99.90
17843;DHT22;69286;48.222;16.332;2024-01-15T09:50:38;3.20;99.90
17843;DHT22;69286;48.222;16.332;2024-01-15T09:53:05;3.20;99.90
17843;DHT22;69286;48.222;16.332;2024-01-15T09:55:32;3.30;99.90
17843;DHT22;69286;48.222;16.332;2024-01-15T09:58:00;3.40;99.90
17843;DHT22;69286;48.222;16.332;2024-01-15T10:00:29;3.50;99.90
17843;DHT22;69286;48.222;16.332;2024-01-15T10:02:57;3.60;99.90
17843;DHT22;69286;48.222;16.332;2024-01-15T10:05:26;3.60;99.90
17843;DHT22;69286;48.222;16.332;2024-01-15T10:07:56;3.70;99.90
17843;DHT22;69286;48.222;16.332;2024-01-15T10:10:23;3.70;99.90
17843;DHT22;69286;48.222;16.332;2024-01-15T10:12:50;3.70;99.90
17843;DHT22;69286;48.222;16.332;2024-01-15T10:15:17;3.80;99.90
17843;DHT22;69286;48.222;16.332;2024-01-15T10:17:45;3.90;99.90
17843;DHT22;69286;48.222;16.332;2024-01-15T10:20:12;4.20;99.90
17843;DHT22;69286;48.222;16.332;2024-01-15T10:22:40;4.40;99.80
17843;DHT22;69286;48.222;16.332;2024-01-15T10:25:11;4.60;99.10
17843;DHT22;69286;48.222;16.332;2024-01-15T10:27:39;4.70;99.00
17843;DHT22;69286;48.222;16.332;2024-01-15T10:30:07;4.70;98.60
17843;DHT22;69286;48.222;16.332;2024-01-15T10:32:34;4.80;98.70
17843;DHT22;69286;48.222;16.332;2024-01-15T10:35:02;4.70;98.30
17843;DHT22;69286;48.222;16.332;2024-01-15T10:37:33;4.70;98.30
17843;DHT22;69286;48.222;16.332;2024-01-15T10:40:01;4.80;97.90
17843;DHT22;69286;48.222;16.332;2024-01-15T10:42:32;4.90;98.50
17843;DHT22;69286;48.222;16.332;2024-01-15T10:44:59;5.00;97.90
17843;DHT22;69286;48.222;16.332;2024-01-15T10:47:27;5.10;97.50
17843;DHT22;69286;48.222;16.332;2024-01-15T10:49:54;5.00;97.70
17843;DHT22;69286;48.222;16.332;2024-01-15T10:52:21;5.30;98.00
17843;DHT22;69286;48.222;16.332;2024-01-15T10:54:49;5.50;97.50
17843;DHT22;69286;48.222;16.332;2024-01-15T10:57:17;5.80;96.80
17843;DHT22;69286;48.222;16.332;2024-01-15T10:59:46;6.10;95.70
17843;DHT22;69286;48.222;16.332;2024-01-15T11:02:14;6.20;95.20
17843;DHT22;69286;48.222;16.332;2024-01-15T11:04:42;6.10;95.30
17843;DHT22;69286;48.222;16.332;2024-01-15T11:07:10;6.10;95.00
17843;DHT22;69286;48.222;16.332;2024-01-15T11:09:38;6.20;95.40
17843;DHT22;69286;48.222;16.332;2024-01-15T11:12:11;6.30;95.20
17843;DHT22;69286;48.222;16.332;2024-01-15T11:14:39;6.30;94.90
17843;DHT22;69286;48.222;16.332;2024-01-15T11:17:10;6.30;94.80
17843;DHT22;69286;48.222;16.332;2024-01-15T11:19:42;6.40;94.90
17843;DHT22;69286;48.222;16.332;2024-01-15T11:25:02;6.30;94.70
17843;DHT22;69286;48.222;16.332;2024-01-15T11:27:40;6.20;94.90
17843;DHT22;69286;48.222;16.332;2024-01-15T11:30:09;6.00;95.20
17843;DHT22;69286;48.222;16.332;2024-01-15T11:32:38;6.00;95.50
17843;DHT22;69286;48.222;16.332;2024-01-15T11:35:07;6.00;95.20
17843;DHT22;69286;48.222;16.332;2024-01-15T11:37:58;5.90;95.40
17843;DHT22;69286;48.222;16.332;2024-01-15T11:40:47;6.00;95.70
17843;DHT22;69286;48.222;16.332;2024-01-15T11:43:18;6.10;95.60
17843;DHT22;69286;48.222;16.332;2024-01-15T11:45:51;6.10;95.30
17843;DHT22;69286;48.222;16.332;2024-01-15T11:48:20;6.10;95.50
17843;DHT22;69286;48.222;16.332;2024-01-15T11:50:50;6.00;95.90
17843;DHT22;69286;48.222;16.332;2024-01-15T11:53:26;6.10;96.10
17843;DHT22;69286;48.222;16.332;2024-01-15T11:55:57;6.10;96.40
17843;DHT22;69286;48.222;16.332;2024-01-15T11:58:25;6.10;96.50
17843;DHT22;69286;48.222;16.332;2024-01-15T12:00:52;6.10;96.50
17843;DHT22;69286;48.222;16.332;2024-01-15T12:03:22;6.00;96.50
17843;DHT22;69286;48.222;16.332;2024-01-15T12:05:49;5.90;96.50
17843;DHT22;69286;48.222;16.332;2024-01-15T12:08:21;5.90;96.90
17843;DHT22;69286;48.222;16.332;2024-01-15T12:10:48;5.90;96.60
17843;DHT22;69286;48.222;16.332;2024-01-15T12:13:16;5.70;96.80
17843;DHT22;69286;48.222;16.332;2024-01-15T12:15:44;5.50;97.20
17843;DHT22;69286;48.222;16.332;2024-01-15T12:18:12;5.40;97.40
17843;DHT22;69286;48.222;16.332;2024-01-15T12:20:42;5.20;97.90
17843;DHT22;69286;48.222;16.332;2024-01-15T12:23:09;5.10;97.80
17843;DHT22;69286;48.222;16.332;2024-01-15T12:25:37;5.10;98.00
17843;DHT22;69286;48.222;16.332;2024-01-15T12:28:05;5.10;97.10
17843;DHT22;69286;48.222;16.332;2024-01-15T12:30:33;5.00;97.20
17843;DHT22;69286;48.222;16.332;2024-01-15T12:33:02;5.10;97.50
17843;DHT22;69286;48.222;16.332;2024-01-15T12:35:30;5.20;97.30
17843;DHT22;69286;48.222;16.332;2024-01-15T12:37:59;5.10;97.30
17843;DHT22;69286;48.222;16.332;2024-01-15T12:40:27;5.10;97.30
17843;DHT22;69286;48.222;16.332;2024-01-15T12:42:55;5.20;97.40
17843;DHT22;69286;48.222;16.332;2024-01-15T12:45:22;5.20;97.30
17843;DHT22;69286;48.222;16.332;2024-01-15T12:47:50;5.20;97.20
17843;DHT22;69286;48.222;16.332;2024-01-15T12:50:17;5.10;97.20
17843;DHT22;69286;48.222;16.332;2024-01-15T12:52:44;5.00;97.10
17843;DHT22;69286;48.222;16.332;2024-01-15T12:55:13;5.00;97.50
17843;DHT22;69286;48.222;16.332;2024-01-15T12:57:40;4.80;97.50
17843;DHT22;69286;48.222;16.332;2024-01-15T13:00:07;4.80;97.90
17843;DHT22;69286;48.222;16.332;2024-01-15T13:02:37;4.70;98.20
17843;DHT22;69286;48.222;16.332;2024-01-15T13:05:06;4.70;98.10
17843;DHT22;69286;48.222;16.332;2024-01-15T13:07:34;4.70;98.30
17843;DHT22;69286;48.222;16.332;2024-01-15T13:10:00;4.60;98.30
17843;DHT22;69286;48.222;16.332;2024-01-15T13:12:29;4.60;98.20
17843;DHT22;69286;48.222;16.332;2024-01-15T13:14:57;4.50;98.50
17843;DHT22;69286;48.222;16.332;2024-01-15T13:17:24;4.50;98.70
17843;DHT22;69286;48.222;16.332;2024-01-15T13:19:51;4.50;98.60
17843;DHT22;69286;48.222;16.332;2024-01-15T13:22:18;4.60;98.60
17843;DHT22;69286;48.222;16.332;2024-01-15T13:24:45;4.60;98.20
17843;DHT22;69286;48.222;16.332;2024-01-15T13:27:13;4.60;98.10
17843;DHT22;69286;48.222;16.332;2024-01-15T13:29:41;4.60;98.00
17843;DHT22;69286;48.222;16.332;2024-01-15T13:32:09;4.60;97.60
17843;DHT22;69286;48.222;16.332;2024-01-15T13:34:39;4.60;97.00
17843;DHT22;69286;48.222;16.332;2024-01-15T13:37:06;4.60;97.00
17843;DHT22;69286;48.222;16.332;2024-01-15T13:39:35;4.60;96.60
17843;DHT22;69286;48.222;16.332;2024-01-15T13:42:02;4.60;96.60
17843;DHT22;69286;48.222;16.332;2024-01-15T13:44:29;4.60;96.60
17843;DHT22;69286;48.222;16.332;2024-01-15T13:46:58;4.60;96.50
17843;DHT22;69286;48.222;16.332;2024-01-15T13:49:25;5.70;97.10
17843;DHT22;69286;48.222;16.332;2024-01-15T13:51:52;4.50;96.60
17843;DHT22;69286;48.222;16.332;2024-01-15T13:54:19;4.50;96.60
17843;DHT22;69286;48.222;16.332;2024-01-15T13:56:46;4.50;96.60
17843;DHT22;69286;48.222;16.332;2024-01-15T13:59:14;4.50;96.60
17843;DHT22;69286;48.222;16.332;2024-01-15T14:01:41;4.40;96.70
17843;DHT22;69286;48.222;16.332;2024-01-15T14:04:10;4.40;96.60
17843;DHT22;69286;48.222;16.332;2024-01-15T14:06:37;4.40;96.70
17843;DHT22;69286;48.222;16.332;2024-01-15T14:09:04;4.40;96.60
17843;DHT22;69286;48.222;16.332;2024-01-15T14:11:35;4.30;96.80
17843;DHT22;69286;48.222;16.332;2024-01-15T14:14:02;4.30;96.40
17843;DHT22;69286;48.222;16.332;2024-01-15T14:16:29;4.30;96.60
17843;DHT22;69286;48.222;16.332;2024-01-15T14:18:56;4.30;96.70
17843;DHT22;69286;48.222;16.332;2024-01-15T14:21:25;4.20;96.70
17843;DHT22;69286;48.222;16.332;2024-01-15T14:23:52;4.20;96.60
17843;DHT22;69286;48.222;16.332;2024-01-15T14:26:19;4.20;96.50
17843;DHT22;69286;48.222;16.332;2024-01-15T14:28:46;4.20;96.50
17843;DHT22;69286;48.222;16.332;2024-01-15T14:31:13;4.10;96.40
17843;DHT22;69286;48.222;16.332;2024-01-15T14:33:40;4.00;96.50
17843;DHT22;69286;48.222;16.332;2024-01-15T14:36:08;4.00;96.70
17843;DHT22;69286;48.222;16.332;2024-01-15T14:38:36;3.90;96.90
17843;DHT22;69286;48.222;16.332;2024-01-15T14:41:04;3.80;97.20
17843;DHT22;69286;48.222;16.332;2024-01-15T14:43:31;3.70;97.20
17843;DHT22;69286;48.222;16.332;2024-01-15T14:45:58;3.70;97.60
17843;DHT22;69286;48.222;16.332;2024-01-15T14:48:25;3.60;97.70
17843;DHT22;69286;48.222;16.332;2024-01-15T14:50:52;3.60;97.80
17843;DHT22;69286;48.222;16.332;2024-01-15T14:53:19;3.50;98.10
17843;DHT22;69286;48.222;16.332;2024-01-15T14:55:48;4.00;98.20
17843;DHT22;69286;48.222;16.332;2024-01-15T14:58:15;3.50;98.20
17843;DHT22;69286;48.222;16.332;2024-01-15T15:00:43;3.50;98.20
17843;DHT22;69286;48.222;16.332;2024-01-15T15:03:11;3.40;98.20
17843;DHT22;69286;48.222;16.332;2024-01-15T15:05:41;3.30;98.50
17843;DHT22;69286;48.222;16.332;2024-01-15T15:08:08;3.30;98.60
17843;DHT22;69286;48.222;16.332;2024-01-15T15:10:37;3.30;98.80
17843;DHT22;69286;48.222;16.332;2024-01-15T15:13:07;3.30;98.80
17843;DHT22;69286;48.222;16.332;2024-01-15T15:15:36;3.30;98.90
17843;DHT22;69286;48.222;16.332;2024-01-15T15:18:03;3.20;98.90
17843;DHT22;69286;48.222;16.332;2024-01-15T15:20:30;3.20;98.90
17843;DHT22;69286;48.222;16.332;2024-01-15T15:22:57;3.20;98.90
17843;DHT22;69286;48.222;16.332;2024-01-15T15:25:24;3.20;99.00
17843;DHT22;69286;48.222;16.332;2024-01-15T15:27:52;3.20;98.80
17843;DHT22;69286;48.222;16.332;2024-01-15T15:30:20;3.20;98.70
17843;DHT22;69286;48.222;16.332;2024-01-15T15:32:47;3.20;98.70
17843;DHT22;69286;48.222;16.332;2024-01-15T15:35:14;3.20;98.80